createdAt,value
2018-12-10T00:00:49.497Z,90.02
2018-12-10T00:03:26.697Z,89.80
2018-12-10T00:05:58.828Z,89.82
2018-12-10T00:08:29.068Z,90.04
2018-12-10T00:10:59.398Z,89.84
2018-12-10T00:13:29.649Z,89.41
2018-12-10T00:15:59.789Z,89.17
2018-12-10T00:18:30.085Z,88.71
2018-12-10T00:21:00.233Z,88.67
2018-12-10T00:23:30.413Z,88.61
2018-12-10T00:26:00.566Z,89.56
2018-12-10T00:28:30.731Z,89.21
2018-12-10T00:31:00.960Z,89.65
2018-12-10T00:33:31.113Z,88.72
2018-12-10T00:36:01.266Z,88.72
2018-12-10T00:38:32.673Z,89.48
2018-12-10T00:41:02.922Z,88.37
2018-12-10T00:43:33.120Z,88.92
2018-12-10T00:46:03.295Z,89.57
2018-12-10T00:48:33.472Z,89.39
2018-12-10T00:51:03.608Z,88.73
2018-12-10T00:53:33.790Z,90.06
2018-12-10T00:56:03.970Z,90.14
2018-12-10T00:58:34.313Z,90.50
2018-12-10T01:01:04.562Z,90.62
2018-12-10T01:03:34.828Z,90.49
2018-12-10T01:06:04.966Z,90.34
2018-12-10T01:08:35.144Z,90.01
2018-12-10T01:11:05.433Z,90.03
2018-12-10T01:13:35.598Z,89.92
2018-12-10T01:16:05.798Z,90.07
2018-12-10T01:18:36.077Z,90.55
2018-12-10T01:21:06.246Z,90.77
2018-12-10T01:23:36.428Z,90.92
2018-12-10T01:26:06.560Z,90.20
2018-12-10T01:28:36.804Z,90.24
2018-12-10T01:31:06.990Z,90.94
2018-12-10T01:33:37.252Z,89.63
2018-12-10T01:36:07.503Z,89.95
2018-12-10T01:38:37.767Z,90.31
2018-12-10T01:41:07.943Z,90.69
2018-12-10T01:43:38.137Z,91.42
2018-12-10T01:46:08.286Z,90.98
2018-12-10T01:48:38.439Z,90.53
2018-12-10T01:51:09.596Z,88.96
2018-12-10T01:53:40.826Z,87.69
2018-12-10T01:56:10.963Z,89.13
2018-12-10T01:58:41.127Z,89.06
2018-12-10T02:01:11.286Z,86.78
2018-12-10T02:03:41.560Z,87.55
2018-12-10T02:06:11.711Z,87.83
2018-12-10T02:08:41.883Z,88.69
2018-12-10T02:11:12.080Z,89.08
2018-12-10T02:13:42.273Z,89.07
2018-12-10T02:16:12.421Z,89.47
2018-12-10T02:18:44.321Z,89.49
2018-12-10T02:21:14.731Z,89.16
2018-12-10T02:23:44.886Z,89.74
2018-12-10T02:26:15.053Z,88.51
2018-12-10T02:28:50.385Z,90.14
2018-12-10T02:31:20.613Z,89.61
2018-12-10T02:33:50.774Z,90.90
2018-12-10T02:36:20.915Z,90.31
2018-12-10T02:38:52.146Z,89.85
2018-12-10T02:41:22.289Z,89.55
2018-12-10T02:43:53.135Z,91.12
2018-12-10T02:46:23.435Z,91.17
2018-12-10T02:48:54.150Z,90.80
2018-12-10T02:51:24.293Z,90.23
2018-12-10T02:53:54.466Z,91.25
2018-12-10T02:56:24.630Z,90.03
2018-12-10T02:58:54.800Z,90.54
2018-12-10T03:01:25.068Z,89.98
2018-12-10T03:03:58.794Z,89.97
2018-12-10T03:06:28.934Z,88.71
2018-12-10T03:08:59.121Z,88.84
2018-12-10T03:11:29.297Z,89.26
2018-12-10T03:13:59.484Z,89.01
2018-12-10T03:16:29.821Z,89.04
2018-12-10T03:18:59.999Z,89.84
2018-12-10T03:21:31.248Z,89.88
2018-12-10T03:24:01.383Z,88.59
2018-12-10T03:26:31.523Z,89.19
2018-12-10T03:29:01.678Z,89.07
2018-12-10T03:31:31.821Z,88.87
2018-12-10T03:34:01.993Z,89.63
2018-12-10T03:36:32.213Z,89.11
2018-12-10T03:39:02.369Z,89.94
2018-12-10T03:41:34.535Z,89.11
2018-12-10T03:44:04.689Z,90.05
2018-12-10T03:46:34.909Z,89.70
2018-12-10T03:49:05.271Z,89.28
2018-12-10T03:51:35.415Z,90.10
2018-12-10T03:54:05.597Z,90.25
2018-12-10T03:56:35.747Z,89.14
2018-12-10T03:59:05.932Z,88.96
2018-12-10T04:01:36.086Z,87.03
2018-12-10T04:04:06.258Z,89.07
2018-12-10T04:06:36.393Z,89.16
2018-12-10T04:09:08.019Z,89.58
2018-12-10T04:11:38.202Z,89.21
2018-12-10T04:14:08.376Z,89.18
2018-12-10T04:16:38.625Z,89.36
2018-12-10T04:19:08.890Z,89.32
2018-12-10T04:21:39.098Z,89.20
2018-12-10T04:24:09.252Z,88.71
2018-12-10T04:26:39.477Z,89.06
2018-12-10T04:29:09.650Z,88.90
2018-12-10T04:31:39.913Z,88.23
2018-12-10T04:34:10.119Z,87.34
2018-12-10T04:36:40.262Z,88.16
2018-12-10T04:39:10.445Z,87.97
2018-12-10T04:41:40.607Z,88.16
2018-12-10T04:44:10.764Z,89.08
2018-12-10T04:46:41.852Z,87.88
2018-12-10T04:49:12.031Z,87.52
2018-12-10T04:51:43.443Z,87.56
2018-12-10T04:54:13.616Z,87.70
2018-12-10T04:56:43.837Z,86.80
2018-12-10T04:59:14.097Z,87.75
2018-12-10T05:01:44.234Z,86.41
2018-12-10T05:04:14.413Z,87.61
2018-12-10T05:06:44.673Z,86.72
2018-12-10T05:09:14.865Z,87.14
2018-12-10T05:11:45.239Z,87.05
2018-12-10T05:14:15.423Z,86.36
2018-12-10T05:16:45.601Z,85.84
2018-12-10T05:19:16.865Z,85.98
2018-12-10T05:21:47.024Z,86.19
2018-12-10T05:24:17.271Z,86.61
2018-12-10T05:26:47.415Z,86.09
2018-12-10T05:29:17.650Z,87.62
2018-12-10T05:31:47.885Z,86.22
2018-12-10T05:34:18.089Z,86.77
2018-12-10T05:36:48.261Z,88.03
2018-12-10T05:39:19.605Z,88.29
2018-12-10T05:41:49.837Z,89.61
2018-12-10T05:44:19.979Z,89.56
2018-12-10T05:46:50.244Z,89.25
2018-12-10T05:49:20.493Z,88.70
2018-12-10T05:51:50.675Z,89.03
2018-12-10T05:54:20.877Z,89.72
2018-12-10T05:56:51.052Z,90.00
2018-12-10T05:59:21.242Z,88.74
2018-12-10T06:01:51.600Z,89.18
2018-12-10T06:04:21.827Z,88.13
2018-12-10T06:06:52.164Z,88.00
2018-12-10T06:09:22.343Z,87.37
2018-12-10T06:11:52.555Z,87.24
2018-12-10T06:14:22.730Z,87.06
2018-12-10T06:16:52.901Z,87.93
2018-12-10T06:19:23.056Z,87.45
2018-12-10T06:21:53.265Z,87.76
2018-12-10T06:24:23.516Z,86.81
2018-12-10T06:26:53.834Z,85.72
2018-12-10T06:29:24.009Z,86.30
2018-12-10T06:31:54.602Z,86.04
2018-12-10T06:34:24.807Z,86.80
2018-12-10T06:36:55.031Z,86.47
2018-12-10T06:39:25.324Z,85.78
2018-12-10T06:41:55.500Z,85.88
2018-12-10T06:44:25.620Z,85.56
2018-12-10T06:46:55.826Z,86.48
2018-12-10T06:49:26.022Z,87.04
2018-12-10T06:51:56.211Z,86.97
2018-12-10T06:54:26.368Z,88.56
2018-12-10T06:56:56.630Z,88.75
2018-12-10T06:59:26.838Z,88.79
2018-12-10T07:01:56.983Z,89.36
2018-12-10T07:04:27.275Z,89.17
2018-12-10T07:06:57.530Z,89.68
2018-12-10T07:09:27.719Z,89.55
2018-12-10T07:11:57.920Z,88.20
2018-12-10T07:14:28.169Z,88.82
2018-12-10T07:16:58.394Z,87.14
2018-12-10T07:19:28.712Z,88.45
2018-12-10T07:21:58.819Z,86.42
2018-12-10T07:24:29.797Z,85.46
2018-12-10T07:26:59.974Z,87.42
2018-12-10T07:29:30.209Z,86.73
2018-12-10T07:32:01.586Z,87.08
2018-12-10T07:34:31.798Z,86.95
2018-12-10T07:37:01.995Z,85.03
2018-12-10T07:39:32.443Z,86.58
2018-12-10T07:42:02.727Z,85.13
2018-12-10T07:44:32.934Z,86.79
2018-12-10T07:47:03.161Z,87.69
2018-12-10T07:49:33.386Z,87.03
2018-12-10T07:52:03.515Z,87.98
2018-12-10T07:54:33.725Z,87.13
2018-12-10T07:57:04.118Z,88.35
2018-12-10T07:59:34.278Z,87.82
2018-12-10T08:02:04.444Z,86.78
2018-12-10T08:04:34.622Z,87.09
2018-12-10T08:07:04.936Z,87.62
2018-12-10T08:09:35.115Z,86.94
2018-12-10T08:12:05.269Z,87.90
2018-12-10T08:14:35.429Z,86.49
2018-12-10T08:17:05.660Z,86.97
2018-12-10T08:19:35.837Z,85.80
2018-12-10T08:22:06.061Z,86.23
2018-12-10T08:24:36.359Z,86.23
2018-12-10T08:27:09.645Z,85.62
2018-12-10T08:29:39.110Z,86.69
2018-12-10T08:32:09.289Z,85.17
2018-12-10T08:34:41.458Z,85.64
2018-12-10T08:37:11.769Z,86.02
2018-12-10T08:39:41.959Z,85.39
2018-12-10T08:42:12.145Z,86.38
2018-12-10T08:44:42.469Z,85.16
2018-12-10T08:47:16.104Z,85.41
2018-12-10T08:49:44.903Z,85.58
2018-12-10T08:52:15.059Z,84.83
2018-12-10T08:54:45.302Z,84.75
2018-12-10T08:57:15.560Z,84.31
2018-12-10T08:59:46.093Z,84.71
2018-12-10T09:02:16.485Z,84.85
2018-12-10T09:04:47.090Z,85.41
2018-12-10T09:07:17.490Z,84.92
2018-12-10T09:09:47.704Z,85.99
2018-12-10T09:12:18.137Z,85.94
2018-12-10T09:14:48.448Z,85.98
2018-12-10T09:17:18.649Z,85.61
2018-12-10T09:19:48.913Z,86.22
2018-12-10T09:22:19.255Z,85.93
2018-12-10T09:24:49.427Z,85.38
2018-12-10T09:27:19.572Z,86.69
2018-12-10T09:29:49.744Z,84.83
2018-12-10T09:32:19.926Z,84.50
2018-12-10T09:34:50.142Z,85.85
2018-12-10T09:37:20.475Z,86.62
2018-12-10T09:39:50.813Z,85.45
2018-12-10T09:42:21.094Z,84.10
2018-12-10T09:44:51.341Z,84.50
2018-12-10T09:47:21.694Z,84.06
2018-12-10T09:49:52.024Z,84.78
2018-12-10T09:52:22.199Z,83.50
2018-12-10T09:54:52.368Z,82.33
2018-12-10T09:57:24.710Z,83.08
2018-12-10T09:59:55.029Z,84.00
2018-12-10T10:02:25.157Z,84.12
2018-12-10T10:04:55.454Z,83.87
2018-12-10T10:07:28.530Z,83.19
2018-12-10T10:09:58.023Z,84.54
2018-12-10T10:12:28.190Z,84.07
2018-12-10T10:14:58.372Z,83.80
2018-12-10T10:17:30.280Z,82.86
2018-12-10T10:20:00.920Z,82.43
2018-12-10T10:22:33.014Z,82.96
2018-12-10T10:25:03.289Z,81.96
2018-12-10T10:27:33.449Z,83.74
2018-12-10T10:30:03.866Z,82.48
2018-12-10T10:32:34.062Z,82.96
2018-12-10T10:35:04.466Z,83.27
2018-12-10T10:37:34.714Z,83.08
2018-12-10T10:40:05.435Z,83.51
2018-12-10T10:42:35.606Z,83.25
2018-12-10T10:45:07.143Z,82.23
2018-12-10T10:47:37.491Z,82.15
2018-12-10T10:50:08.547Z,83.38
2018-12-10T10:52:40.781Z,82.38
2018-12-10T10:55:10.942Z,82.45
2018-12-10T10:57:42.535Z,81.45
2018-12-10T11:00:18.645Z,81.58
2018-12-10T11:02:56.681Z,81.87
2018-12-10T11:05:27.274Z,82.13
2018-12-10T11:07:57.550Z,81.98
2018-12-10T11:10:27.812Z,81.77
2018-12-10T11:12:58.054Z,80.52
2018-12-10T11:15:28.428Z,81.02
2018-12-10T11:17:58.913Z,81.72
2018-12-10T11:20:29.135Z,79.71
2018-12-10T11:22:59.541Z,80.82
2018-12-10T11:25:30.000Z,79.62
2018-12-10T11:28:00.233Z,80.05
2018-12-10T11:30:30.550Z,80.70
2018-12-10T11:33:00.806Z,81.18
2018-12-10T11:35:31.004Z,80.41
2018-12-10T11:38:01.536Z,80.00
2018-12-10T11:40:32.554Z,80.20
2018-12-10T11:43:02.729Z,80.41
2018-12-10T11:45:32.961Z,80.24
2018-12-10T11:48:03.150Z,78.21
2018-12-10T11:50:33.383Z,79.40
2018-12-10T11:53:03.482Z,80.68
2018-12-10T11:55:33.656Z,79.93
2018-12-10T11:58:03.800Z,80.71
2018-12-10T12:00:34.178Z,81.94
2018-12-10T12:03:04.417Z,80.66
2018-12-10T12:05:34.670Z,82.82
2018-12-10T12:08:04.878Z,83.71
2018-12-10T12:10:35.174Z,83.04
2018-12-10T12:13:05.525Z,83.81
2018-12-10T12:15:42.523Z,82.68
2018-12-10T12:18:12.671Z,82.34
2018-12-10T12:20:42.971Z,83.78
2018-12-10T12:23:14.001Z,84.06
2018-12-10T12:25:44.292Z,84.40
2018-12-10T12:28:14.529Z,85.09
2018-12-10T12:30:44.745Z,84.24
2018-12-10T12:33:14.919Z,85.97
2018-12-10T12:35:45.118Z,84.02
2018-12-10T12:38:15.382Z,85.07
2018-12-10T12:40:45.610Z,85.47
2018-12-10T12:43:16.290Z,85.64
2018-12-10T12:45:46.634Z,85.48
2018-12-10T12:48:16.897Z,84.58
2018-12-10T12:50:47.197Z,85.73
2018-12-10T12:53:17.360Z,83.20
2018-12-10T12:55:47.662Z,84.10
2018-12-10T12:58:17.844Z,82.91
2018-12-10T13:00:48.107Z,82.36
2018-12-10T13:03:18.290Z,83.39
2018-12-10T13:05:48.576Z,83.49
2018-12-10T13:08:19.980Z,82.86
2018-12-10T13:10:50.704Z,82.23
2018-12-10T13:13:21.096Z,82.75
2018-12-10T13:15:51.355Z,81.82
2018-12-10T13:18:21.545Z,82.71
2018-12-10T13:20:51.734Z,83.02
2018-12-10T13:23:22.112Z,83.29
2018-12-10T13:25:52.291Z,84.35
2018-12-10T13:28:22.481Z,83.86
2018-12-10T13:30:52.696Z,85.14
2018-12-10T13:33:22.879Z,86.20
2018-12-10T13:35:53.085Z,86.29
2018-12-10T13:38:23.308Z,86.34
2018-12-10T13:40:53.471Z,85.28
2018-12-10T13:43:23.699Z,86.10
2018-12-10T13:45:54.019Z,87.78
2018-12-10T13:48:25.360Z,87.93
2018-12-10T13:50:55.673Z,87.50
2018-12-10T13:53:25.927Z,87.33
2018-12-10T13:55:56.254Z,88.03
2018-12-10T13:58:26.429Z,88.59
2018-12-10T14:00:56.604Z,88.58
2018-12-10T14:03:26.925Z,88.70
2018-12-10T14:05:57.253Z,89.60
2018-12-10T14:08:27.863Z,89.08
2018-12-10T14:10:58.199Z,89.24
2018-12-10T14:13:28.504Z,88.35
2018-12-10T14:15:58.711Z,88.29
2018-12-10T14:18:28.901Z,90.24
2018-12-10T14:20:59.236Z,88.84
2018-12-10T14:23:29.561Z,88.34
2018-12-10T14:25:59.811Z,87.67
2018-12-10T14:28:30.078Z,86.96
2018-12-10T14:31:00.560Z,86.85
2018-12-10T14:33:31.007Z,88.09
2018-12-10T14:36:01.226Z,88.23
2018-12-10T14:38:31.549Z,87.82
2018-12-10T14:41:01.748Z,88.36
2018-12-10T14:43:31.962Z,87.05
2018-12-10T14:46:02.293Z,88.16
2018-12-10T14:48:32.666Z,87.75
2018-12-10T14:51:02.863Z,87.04
2018-12-10T14:53:33.289Z,88.14
2018-12-10T14:56:03.493Z,87.29
2018-12-10T14:58:34.321Z,87.12
2018-12-10T15:01:04.605Z,86.75
2018-12-10T15:03:34.762Z,86.48
2018-12-10T15:06:05.166Z,86.93
2018-12-10T15:08:35.458Z,87.25
2018-12-10T15:11:08.815Z,86.63
2018-12-10T15:13:39.315Z,86.99
2018-12-10T15:16:09.616Z,87.05
2018-12-10T15:18:39.899Z,87.49
2018-12-10T15:21:10.126Z,87.32
2018-12-10T15:23:40.282Z,87.19
2018-12-10T15:26:10.571Z,87.90
2018-12-10T15:28:40.826Z,87.23
2018-12-10T15:31:11.029Z,88.03
2018-12-10T15:33:41.496Z,88.17
2018-12-10T15:36:13.172Z,87.70
2018-12-10T15:38:43.342Z,87.77
2018-12-10T15:41:13.539Z,87.43
2018-12-10T15:43:43.728Z,86.99
2018-12-10T15:46:13.906Z,87.58
2018-12-10T15:48:44.137Z,86.68
2018-12-10T15:51:14.349Z,87.10
2018-12-10T15:53:44.555Z,86.39
2018-12-10T15:56:14.752Z,87.70
2018-12-10T15:58:44.953Z,87.16
2018-12-10T16:01:15.138Z,87.36
2018-12-10T16:03:45.330Z,87.05
2018-12-10T16:06:15.670Z,86.81
2018-12-10T16:08:45.840Z,85.68
2018-12-10T16:11:16.077Z,85.95
2018-12-10T16:13:46.286Z,86.15
2018-12-10T16:16:16.502Z,86.17
2018-12-10T16:18:46.707Z,86.09
2018-12-10T16:21:16.880Z,86.45
2018-12-10T16:23:47.156Z,86.37
2018-12-10T16:26:17.345Z,84.92
2018-12-10T16:28:47.612Z,86.40
2018-12-10T16:31:17.834Z,86.43
2018-12-10T16:33:48.092Z,85.46
2018-12-10T16:36:18.427Z,85.50
2018-12-10T16:38:48.697Z,86.00
2018-12-10T16:41:19.009Z,84.30
2018-12-10T16:43:49.163Z,84.61
2018-12-10T16:46:19.367Z,85.68
2018-12-10T16:48:49.605Z,85.19
2018-12-10T16:51:19.818Z,84.47
2018-12-10T16:53:50.142Z,84.73
2018-12-10T16:56:20.409Z,84.57
2018-12-10T16:58:50.767Z,85.18
2018-12-10T17:01:20.894Z,84.27
2018-12-10T17:03:51.091Z,85.69
2018-12-10T17:06:21.267Z,84.43
2018-12-10T17:08:51.425Z,84.54
2018-12-10T17:11:21.684Z,85.09
2018-12-10T17:13:52.413Z,85.55
2018-12-10T17:16:22.676Z,84.09
2018-12-10T17:18:52.873Z,85.60
2018-12-10T17:21:23.189Z,85.52
2018-12-10T17:23:53.366Z,84.33
2018-12-10T17:26:24.803Z,83.84
2018-12-10T17:28:54.970Z,85.05
2018-12-10T17:31:25.147Z,84.50
2018-12-10T17:33:55.898Z,84.30
2018-12-10T17:36:26.182Z,85.07
2018-12-10T17:38:56.380Z,84.73
2018-12-10T17:41:26.653Z,84.20
2018-12-10T17:43:56.928Z,84.58
2018-12-10T17:46:27.083Z,84.81
2018-12-10T17:48:57.343Z,83.78
2018-12-10T17:51:27.598Z,84.52
2018-12-10T17:53:58.093Z,83.71
2018-12-10T17:56:28.661Z,83.10
2018-12-10T17:58:59.152Z,83.45
2018-12-10T18:01:29.540Z,83.28
2018-12-10T18:04:01.170Z,84.26
2018-12-10T18:06:31.705Z,83.48
2018-12-10T18:09:02.003Z,82.68
2018-12-10T18:11:34.354Z,82.86
2018-12-10T18:14:04.627Z,84.24
2018-12-10T18:16:34.842Z,84.44
2018-12-10T18:19:05.608Z,82.98
2018-12-10T18:21:35.967Z,83.98
2018-12-10T18:24:06.380Z,83.28
2018-12-10T18:26:36.573Z,83.62
2018-12-10T18:29:06.780Z,82.80
2018-12-10T18:31:37.900Z,83.21
2018-12-10T18:34:08.142Z,82.04
2018-12-10T18:36:38.348Z,81.91
2018-12-10T18:39:09.887Z,81.31
2018-12-10T18:41:41.484Z,80.57
2018-12-10T18:44:13.015Z,83.44
2018-12-10T18:46:43.347Z,81.75
2018-12-10T18:49:13.603Z,82.42
2018-12-10T18:51:43.823Z,82.95
2018-12-10T18:54:15.629Z,82.43
2018-12-10T18:56:45.888Z,83.74
2018-12-10T18:59:16.134Z,83.40
2018-12-10T19:01:46.297Z,83.50
2018-12-10T19:04:16.822Z,83.94
2018-12-10T19:06:47.006Z,83.74
2018-12-10T19:09:17.487Z,82.94
2018-12-10T19:11:47.899Z,84.38
2018-12-10T19:14:18.551Z,83.85
2018-12-10T19:16:48.753Z,84.27
2018-12-10T19:19:19.014Z,85.00
2018-12-10T19:21:49.284Z,85.05
2018-12-10T19:24:19.523Z,84.97
2018-12-10T19:26:49.719Z,83.72
2018-12-10T19:29:19.874Z,85.09
2018-12-10T19:31:50.077Z,84.89
2018-12-10T19:34:20.220Z,83.31
2018-12-10T19:36:50.407Z,84.46
2018-12-10T19:39:20.628Z,84.22
2018-12-10T19:41:50.815Z,84.62
2018-12-10T19:44:21.044Z,83.99
2018-12-10T19:46:51.236Z,84.69
2018-12-10T19:49:22.320Z,84.96
2018-12-10T19:51:52.622Z,84.25
2018-12-10T19:54:22.863Z,84.94
2018-12-10T19:56:53.160Z,83.89
2018-12-10T19:59:23.393Z,84.55
2018-12-10T20:01:53.601Z,83.26
2018-12-10T20:04:23.863Z,83.68
2018-12-10T20:06:59.541Z,83.86
2018-12-10T20:09:29.715Z,84.97
2018-12-10T20:11:59.953Z,84.17
2018-12-10T20:14:30.197Z,86.39
2018-12-10T20:17:00.507Z,86.51
2018-12-10T20:19:30.799Z,86.23
2018-12-10T20:22:01.022Z,85.37
2018-12-10T20:24:31.271Z,85.52
2018-12-10T20:27:01.658Z,85.43
2018-12-10T20:29:33.298Z,86.75
2018-12-10T20:32:03.633Z,85.79
2018-12-10T20:34:36.795Z,86.78
2018-12-10T20:37:06.966Z,87.08
2018-12-10T20:39:37.108Z,88.29
2018-12-10T20:42:07.834Z,88.97
2018-12-10T20:44:39.377Z,89.98
2018-12-10T20:47:10.113Z,91.61
2018-12-10T20:49:40.291Z,93.30
2018-12-10T20:52:10.589Z,92.58
2018-12-10T20:54:41.961Z,92.24
2018-12-10T20:57:12.173Z,91.30
2018-12-10T20:59:42.475Z,91.03
2018-12-10T21:02:12.683Z,91.02
2018-12-10T21:04:42.837Z,91.19
2018-12-10T21:07:13.032Z,90.42
2018-12-10T21:09:44.734Z,90.26
2018-12-10T21:12:14.935Z,89.77
2018-12-10T21:14:45.109Z,89.29
2018-12-10T21:17:16.187Z,89.49
2018-12-10T21:19:47.668Z,89.76
2018-12-10T21:22:18.302Z,88.68
2018-12-10T21:24:49.257Z,88.20
2018-12-10T21:27:19.451Z,88.73
2018-12-10T21:29:49.595Z,88.54
2018-12-10T21:32:19.778Z,89.67
2018-12-10T21:34:49.945Z,89.54
2018-12-10T21:37:20.103Z,87.75
2018-12-10T21:39:50.297Z,89.44
2018-12-10T21:42:20.982Z,89.73
2018-12-10T21:44:51.174Z,88.37
2018-12-10T21:47:21.365Z,89.78
2018-12-10T21:49:51.529Z,89.49
2018-12-10T21:52:21.739Z,89.69
2018-12-10T21:54:51.903Z,89.96
2018-12-10T21:57:22.557Z,90.67
2018-12-10T21:59:53.578Z,89.56
2018-12-10T22:02:23.780Z,89.84
2018-12-10T22:04:54.988Z,89.70
2018-12-10T22:07:25.388Z,89.66
2018-12-10T22:09:55.892Z,90.24
2018-12-10T22:12:26.084Z,89.34
2018-12-10T22:14:56.267Z,90.31
2018-12-10T22:17:26.544Z,89.63
2018-12-10T22:19:56.721Z,89.91
2018-12-10T22:22:27.910Z,88.79
2018-12-10T22:24:58.656Z,88.44
2018-12-10T22:27:29.818Z,88.51
2018-12-10T22:30:01.076Z,89.21
2018-12-10T22:32:31.310Z,89.08
2018-12-10T22:35:01.470Z,87.76
2018-12-10T22:37:31.746Z,88.31
2018-12-10T22:40:02.912Z,89.31
2018-12-10T22:42:33.217Z,88.81
2018-12-10T22:45:03.488Z,88.81
2018-12-10T22:47:33.659Z,88.25
2018-12-10T22:50:05.316Z,87.65
2018-12-10T22:52:35.470Z,87.25
2018-12-10T22:55:05.969Z,87.00
2018-12-10T22:57:36.160Z,86.64
2018-12-10T23:00:09.602Z,87.06
2018-12-10T23:02:41.747Z,87.20
2018-12-10T23:05:11.917Z,87.65
2018-12-10T23:07:44.090Z,87.35
2018-12-10T23:10:14.356Z,86.76
2018-12-10T23:12:44.843Z,86.73
2018-12-10T23:15:15.034Z,86.76
2018-12-10T23:17:48.947Z,85.73
2018-12-10T23:20:19.180Z,86.48
2018-12-10T23:22:49.392Z,86.00
2018-12-10T23:25:19.589Z,86.20
2018-12-10T23:27:50.128Z,86.68
2018-12-10T23:30:20.298Z,86.96
2018-12-10T23:32:52.078Z,87.68
2018-12-10T23:35:22.338Z,86.18
2018-12-10T23:37:52.521Z,85.89
2018-12-10T23:40:24.210Z,86.51
2018-12-10T23:42:59.649Z,86.24
2018-12-10T23:45:29.798Z,86.59
2018-12-10T23:48:01.187Z,85.71
2018-12-10T23:50:31.334Z,85.07
2018-12-10T23:53:01.534Z,86.28
2018-12-10T23:55:31.678Z,86.98
2018-12-10T23:58:01.847Z,86.86
